Tompkins, Canada
Current Conditions -  °F | °C
As of 2:00 PM on Sunday 23 Nov 2014 (Local Time) from CYYN Reporting Station
Scattered Clouds Scattered Clouds  
Wind Chill:   Ceiling: Unl
Heat Index: 18°   Visibility: 9mi
Dew Point: 12°   Wind: 16mph
Humidity: 79%   Direction: 310°NW
Pressure: 29.78"   Gusts: NA
Location:  50.07°N, 108.8°W
Report Text: CYYN 232000Z AUTO 31014KT 9SM SCT170 M08/M11 A2978 RMK SLP133
Loading
Personal Weather Stations






























Interactive Weather Map New forecast layout! Learn more

10-Day Weather Forecast

Advertisements
Track Severe Weather on mobile